スィクティフカル の空港の天気 - METARとTAF

Syktyvkar ( UUYY / SCW ) - ロシア スィクティフカル
飛行場実況気象(Metar)
観測時間02/17 17:30 MSK (02/17 14:30 UTC)
風向・風速南 3m/s
視程2700m
天気現象弱いしゅう雪
全天の4割程度の雲 雲底高度 300m
全天の8割程度の雲 雲底高度 580m
気温-4℃
湿度100%
気圧978hPa
METARUUYY 171430Z 19003MPS 2700 -SHSN SCT010 BKN019CB M04/M04 Q0978 R18/450335 TEMPO 1000 SHSN RMK QFE725/0967
過去の天気等 Google飛行場航空写真 Wunderground天気予報

過去48時間のMETAR

飛行場予報(TAF)
発表時間: 2/17 17:00 MSK (2/17 14:00 UTC)
予報対象時間: 17日18時 MSK ~ 18日18時 MSK
風向・風速南 3m/s 瞬間風速 8m/s
視程3100m
天気現象弱いしゅう雪
全天の8割程度の雲 雲底高度 340m
全天の8割程度の積乱雲 雲底高度 460m
17日18時 MSK ~ 17日22時 MSK に一時的に
視程700m
天気現象強いしゅう雪 強い氷雨
全天の8割程度の雲 雲底高度 150m
全天の8割程度の積乱雲 雲底高度 370m
17日22時 MSK ~ 17日23時 MSK に徐々に
風向・風速北北西 3m/s
18日7時 MSK ~ 18日9時 MSK に徐々に
風向・風速北 7m/s 瞬間風速 14m/s
TAF UUYY 171400Z 1715/1815 19003G08MPS 3100 -SHSN BKN011 BKN015CB
TEMPO 1715/1719 0700 +SHSN +FZRA BKN005 BKN012CB
BECMG 1719/1720 33003MPS
BECMG 1804/1806 36007G14MPS